Time;durP1;ratioP1;P1;durP2;ratioP2;P2;SDS_P1;SDS_P2;PMS_P1;PMS_P2;Temp;Humidity;BMP_temperature;BMP_pressure;BME280_temperature;BME280_humidity;BME280_pressure;Samples;Min_cycle;Max_cycle;Signal;HPM_P1;HPM_P2
2023/07/19 00:01:06;;;;;;;;;;;32.60;57.70;;;;;;5096625;28;19960;-82
2023/07/19 00:03:32;;;;;;;;;;;32.50;57.90;;;;;;5114693;28;19915;-82
2023/07/19 00:05:59;;;;;;;;;;;32.50;58.20;;;;;;5115579;28;19930;-82
2023/07/19 00:08:25;;;;;;;;;;;32.50;58.00;;;;;;5114881;28;19911;-83
2023/07/19 00:10:51;;;;;;;;;;;32.60;57.50;;;;;;5114806;28;19904;-82
2023/07/19 00:13:17;;;;;;;;;;;32.60;57.40;;;;;;5114615;28;20360;-82
2023/07/19 00:15:43;;;;;;;;;;;32.60;57.30;;;;;;5114699;28;19907;-83
2023/07/19 00:18:08;;;;;;;;;;;32.60;57.50;;;;;;5115253;28;20445;-82
2023/07/19 00:20:34;;;;;;;;;;;32.60;57.70;;;;;;5114948;28;20014;-82
2023/07/19 00:23:00;;;;;;;;;;;32.50;57.70;;;;;;5114741;28;19904;-83
2023/07/19 00:25:26;;;;;;;;;;;32.40;57.80;;;;;;5096304;28;19942;-83
2023/07/19 00:27:52;;;;;;;;;;;32.40;58.10;;;;;;5115121;28;19951;-83
2023/07/19 00:30:17;;;;;;;;;;;32.40;58.40;;;;;;5113938;28;19915;-82
2023/07/19 00:32:43;;;;;;;;;;;32.40;57.50;;;;;;5114551;28;19904;-82
2023/07/19 00:35:09;;;;;;;;;;;32.40;57.40;;;;;;5115008;28;19903;-84
2023/07/19 00:37:36;;;;;;;;;;;32.40;57.70;;;;;;5114658;28;20352;-83
2023/07/19 00:40:03;;;;;;;;;;;32.40;57.50;;;;;;5114291;28;19918;-83
2023/07/19 00:42:29;;;;;;;;;;;32.40;57.00;;;;;;5096132;28;19903;-83
2023/07/19 00:44:55;;;;;;;;;;;32.50;56.90;;;;;;5114152;28;20347;-82
2023/07/19 00:47:21;;;;;;;;;;;32.50;57.00;;;;;;5114868;28;19910;-83
2023/07/19 00:49:47;;;;;;;;;;;32.50;57.40;;;;;;5114477;28;19907;-83
2023/07/19 00:52:13;;;;;;;;;;;32.50;57.60;;;;;;5114320;28;19913;-83
2023/07/19 00:54:39;;;;;;;;;;;32.50;57.70;;;;;;5114151;28;19903;-82
2023/07/19 00:57:05;;;;;;;;;;;32.50;57.70;;;;;;5095889;28;19995;-83
2023/07/19 00:59:31;;;;;;;;;;;32.50;57.60;;;;;;5113934;28;19954;-82
2023/07/19 01:01:57;;;;;;;;;;;32.50;57.20;;;;;;5114043;28;20002;-83
2023/07/19 01:04:25;;;;;;;;;;;32.50;57.00;;;;;;5113805;28;19915;-82
2023/07/19 01:06:51;;;;;;;;;;;32.50;56.80;;;;;;5114187;28;19903;-85
2023/07/19 01:09:17;;;;;;;;;;;32.50;56.70;;;;;;5114541;28;19995;-83
2023/07/19 01:11:43;;;;;;;;;;;32.50;56.70;;;;;;5114201;28;19904;-83
2023/07/19 01:14:08;;;;;;;;;;;32.60;56.30;;;;;;5114115;28;19999;-83
2023/07/19 01:16:34;;;;;;;;;;;32.60;56.30;;;;;;5114145;28;19939;-83
2023/07/19 01:19:00;;;;;;;;;;;32.70;56.10;;;;;;5113730;28;19903;-83
2023/07/19 01:21:26;;;;;;;;;;;32.70;56.20;;;;;;5113699;28;20006;-84
2023/07/19 01:23:52;;;;;;;;;;;32.50;56.30;;;;;;5113703;28;20379;-84
2023/07/19 01:26:18;;;;;;;;;;;32.50;56.60;;;;;;5113720;28;19907;-84
2023/07/19 01:28:44;;;;;;;;;;;32.30;56.70;;;;;;5113435;28;19904;-84
2023/07/19 01:31:11;;;;;;;;;;;32.30;57.00;;;;;;5114002;28;19904;-83
2023/07/19 01:33:37;;;;;;;;;;;32.20;57.20;;;;;;5113513;28;19904;-84
2023/07/19 01:36:03;;;;;;;;;;;32.30;56.90;;;;;;5113742;28;19904;-84
2023/07/19 01:38:29;;;;;;;;;;;32.20;57.00;;;;;;5113680;28;20035;-84
2023/07/19 01:40:55;;;;;;;;;;;32.20;56.90;;;;;;5113776;28;19961;-84
2023/07/19 01:43:21;;;;;;;;;;;32.10;56.70;;;;;;5118298;28;20344;-83
2023/07/19 01:45:47;;;;;;;;;;;32.10;56.80;;;;;;5118379;28;19911;-83
2023/07/19 01:48:13;;;;;;;;;;;32.10;57.00;;;;;;5118070;28;20020;-84
2023/07/19 01:50:38;;;;;;;;;;;32.00;57.10;;;;;;5117588;28;19994;-83
2023/07/19 01:53:04;;;;;;;;;;;32.00;57.10;;;;;;5117681;28;19950;-84
2023/07/19 01:55:30;;;;;;;;;;;32.00;57.20;;;;;;5117765;28;19911;-84
2023/07/19 01:57:56;;;;;;;;;;;31.90;57.30;;;;;;5118202;28;19926;-84
2023/07/19 02:00:22;;;;;;;;;;;31.80;57.40;;;;;;5117454;28;20291;-84
2023/07/19 02:02:47;;;;;;;;;;;31.80;58.20;;;;;;5117755;28;19908;-83
2023/07/19 02:05:13;;;;;;;;;;;31.80;57.90;;;;;;5117693;28;20379;-84
2023/07/19 02:07:39;;;;;;;;;;;31.80;57.90;;;;;;5117387;28;19915;-84
2023/07/19 02:10:05;;;;;;;;;;;31.70;58.20;;;;;;5118016;28;19904;-83
2023/07/19 02:12:31;;;;;;;;;;;31.70;58.40;;;;;;5117697;28;19997;-85
2023/07/19 02:14:57;;;;;;;;;;;31.70;58.40;;;;;;5117185;28;19904;-83
2023/07/19 02:17:22;;;;;;;;;;;31.60;58.30;;;;;;5117814;28;19911;-84
2023/07/19 02:19:48;;;;;;;;;;;31.60;58.00;;;;;;5117163;28;20364;-84
2023/07/19 02:22:17;;;;;;;;;;;31.60;57.60;;;;;;5117205;28;20342;-84
2023/07/19 02:24:42;;;;;;;;;;;31.60;57.60;;;;;;5098793;28;19957;-84
2023/07/19 02:27:08;;;;;;;;;;;31.60;57.90;;;;;;5098781;28;19907;-84
2023/07/19 02:29:34;;;;;;;;;;;31.60;57.40;;;;;;5098464;28;20352;-84
2023/07/19 02:32:00;;;;;;;;;;;31.70;57.30;;;;;;5116848;28;20316;-83
2023/07/19 02:34:26;;;;;;;;;;;31.60;56.90;;;;;;5098533;28;20118;-84
2023/07/19 02:36:52;;;;;;;;;;;31.80;55.10;;;;;;5116691;28;20382;-85
2023/07/19 02:39:20;;;;;;;;;;;31.90;54.70;;;;;;5117242;28;19908;-84
2023/07/19 02:41:45;;;;;;;;;;;31.90;54.60;;;;;;5098455;28;19931;-83
2023/07/19 02:44:11;;;;;;;;;;;31.90;54.60;;;;;;5116594;28;19974;-84
2023/07/19 02:46:37;;;;;;;;;;;31.90;55.00;;;;;;5117277;28;19904;-84
2023/07/19 02:49:03;;;;;;;;;;;31.90;55.30;;;;;;5116547;28;19914;-84
2023/07/19 02:51:29;;;;;;;;;;;31.80;55.40;;;;;;5098175;28;19915;-83
2023/07/19 02:53:54;;;;;;;;;;;31.80;55.60;;;;;;5097733;28;19910;-84
2023/07/19 02:56:20;;;;;;;;;;;31.70;55.80;;;;;;5116770;28;19939;-82
2023/07/19 02:58:46;;;;;;;;;;;31.60;55.90;;;;;;5116137;28;19910;-83
2023/07/19 03:01:14;;;;;;;;;;;31.60;55.80;;;;;;5116717;28;19918;-83
2023/07/19 03:03:41;;;;;;;;;;;31.70;55.60;;;;;;5115844;28;20235;-83
2023/07/19 03:06:10;;;;;;;;;;;31.70;55.70;;;;;;5116570;28;20367;-83
2023/07/19 03:08:37;;;;;;;;;;;31.60;55.80;;;;;;5116112;28;19998;-82
2023/07/19 03:11:03;;;;;;;;;;;31.60;55.50;;;;;;5115986;28;19994;-83
2023/07/19 03:13:29;;;;;;;;;;;31.70;55.60;;;;;;5116391;28;20343;-83
2023/07/19 03:15:55;;;;;;;;;;;31.70;55.60;;;;;;5116048;28;19995;-83
2023/07/19 03:18:21;;;;;;;;;;;31.60;55.80;;;;;;5116223;28;19903;-83
2023/07/19 03:20:46;;;;;;;;;;;31.60;55.70;;;;;;5115797;28;19919;-82
2023/07/19 03:23:12;;;;;;;;;;;31.60;56.00;;;;;;5115878;28;19904;-82
2023/07/19 03:25:38;;;;;;;;;;;31.50;56.30;;;;;;5116324;28;20026;-83
2023/07/19 03:28:04;;;;;;;;;;;31.40;56.20;;;;;;5115728;28;20016;-84
2023/07/19 03:30:30;;;;;;;;;;;31.40;56.20;;;;;;5115601;28;19911;-83
2023/07/19 03:32:55;;;;;;;;;;;31.40;56.40;;;;;;5116182;28;20029;-83
2023/07/19 03:35:21;;;;;;;;;;;31.30;56.30;;;;;;5115596;28;19994;-83
2023/07/19 03:37:47;;;;;;;;;;;31.30;56.40;;;;;;5115610;28;19933;-83
2023/07/19 03:40:13;;;;;;;;;;;31.30;56.10;;;;;;5115320;28;19919;-84
2023/07/19 03:42:40;;;;;;;;;;;31.30;56.40;;;;;;5115532;28;19943;-84
2023/07/19 03:45:06;;;;;;;;;;;31.30;56.10;;;;;;5096891;28;20010;-84
2023/07/19 03:47:32;;;;;;;;;;;31.40;56.20;;;;;;5115234;28;19918;-83
2023/07/19 03:49:58;;;;;;;;;;;31.30;56.00;;;;;;5115883;28;19947;-83
2023/07/19 03:52:24;;;;;;;;;;;31.20;56.00;;;;;;5115355;28;19947;-83
2023/07/19 03:54:53;;;;;;;;;;;31.20;55.70;;;;;;5115313;28;19908;-83
2023/07/19 03:57:18;;;;;;;;;;;31.30;55.60;;;;;;5115560;28;20002;-83
2023/07/19 03:59:45;;;;;;;;;;;31.50;55.10;;;;;;5114910;28;20002;-84
2023/07/19 04:02:11;;;;;;;;;;;31.50;55.10;;;;;;5096878;28;19910;-83
2023/07/19 04:04:37;;;;;;;;;;;31.60;54.90;;;;;;5114244;28;20305;-82
2023/07/19 04:07:03;;;;;;;;;;;31.70;54.40;;;;;;5115569;28;20007;-83
2023/07/19 04:09:28;;;;;;;;;;;31.90;54.20;;;;;;5115234;28;19911;-82
2023/07/19 04:11:54;;;;;;;;;;;32.10;53.80;;;;;;5115000;28;19910;-83
2023/07/19 04:14:20;;;;;;;;;;;32.20;53.60;;;;;;5115089;28;19903;-83
2023/07/19 04:16:46;;;;;;;;;;;32.30;53.50;;;;;;5115116;28;19948;-83
2023/07/19 04:19:12;;;;;;;;;;;32.30;53.50;;;;;;5114991;28;19903;-84
2023/07/19 04:21:37;;;;;;;;;;;32.20;53.60;;;;;;5115265;28;19912;-83
2023/07/19 04:24:03;;;;;;;;;;;32.20;53.90;;;;;;5114988;28;20320;-83
2023/07/19 04:26:29;;;;;;;;;;;32.20;53.90;;;;;;5096814;28;20367;-84
2023/07/19 04:28:57;;;;;;;;;;;32.20;53.80;;;;;;5114477;28;19912;-82
2023/07/19 04:31:23;;;;;;;;;;;32.20;53.80;;;;;;5114623;28;19934;-83
2023/07/19 04:33:49;;;;;;;;;;;32.30;53.90;;;;;;5114466;28;19908;-83
2023/07/19 04:36:15;;;;;;;;;;;32.20;54.10;;;;;;5114925;28;20348;-83
2023/07/19 04:38:42;;;;;;;;;;;32.20;54.10;;;;;;5114501;28;19904;-83
2023/07/19 04:41:08;;;;;;;;;;;32.20;54.00;;;;;;5114254;28;20398;-83
2023/07/19 04:43:34;;;;;;;;;;;32.30;54.00;;;;;;5114198;28;20370;-84
2023/07/19 04:46:00;;;;;;;;;;;32.30;54.00;;;;;;5114401;28;19904;-83
2023/07/19 04:48:26;;;;;;;;;;;32.40;53.90;;;;;;5114070;28;20003;-83
2023/07/19 04:50:53;;;;;;;;;;;32.40;53.50;;;;;;5113981;28;19904;-83
2023/07/19 04:53:21;;;;;;;;;;;32.50;53.50;;;;;;5114337;28;19903;-83
2023/07/19 04:55:48;;;;;;;;;;;32.50;53.40;;;;;;5113899;28;19904;-83
2023/07/19 04:58:14;;;;;;;;;;;32.70;53.20;;;;;;5113961;28;19903;-83
2023/07/19 05:00:40;;;;;;;;;;;32.70;53.10;;;;;;5113786;28;19912;-84
2023/07/19 05:03:05;;;;;;;;;;;32.80;53.20;;;;;;5095399;28;19923;-83
2023/07/19 05:05:31;;;;;;;;;;;33.00;53.00;;;;;;5114139;28;19957;-83
2023/07/19 05:07:58;;;;;;;;;;;33.10;53.10;;;;;;5114178;28;19904;-83
2023/07/19 05:10:24;;;;;;;;;;;33.10;53.00;;;;;;5114043;28;19904;-83
2023/07/19 05:12:49;;;;;;;;;;;33.40;52.50;;;;;;5113947;28;19903;-83
2023/07/19 05:15:15;;;;;;;;;;;34.40;51.50;;;;;;5113696;28;20322;-83
2023/07/19 05:17:41;;;;;;;;;;;35.60;49.70;;;;;;5114073;28;19904;-83
2023/07/19 05:20:07;;;;;;;;;;;36.90;48.80;;;;;;5113523;28;20343;-83
2023/07/19 05:22:33;;;;;;;;;;;37.90;47.90;;;;;;5095161;28;20347;-84
2023/07/19 05:24:59;;;;;;;;;;;38.40;47.50;;;;;;5113728;28;19939;-83
2023/07/19 05:27:25;;;;;;;;;;;38.60;46.80;;;;;;5095272;28;20356;-83
2023/07/19 05:29:51;;;;;;;;;;;39.10;46.30;;;;;;5113674;28;19910;-83
2023/07/19 05:32:16;;;;;;;;;;;39.50;45.80;;;;;;5114067;28;19905;-83
2023/07/19 05:34:42;;;;;;;;;;;40.00;45.50;;;;;;5113652;28;19911;-83
2023/07/19 05:37:08;;;;;;;;;;;40.50;45.30;;;;;;5113483;28;19903;-83
2023/07/19 05:39:34;;;;;;;;;;;41.30;44.00;;;;;;5113538;28;20352;-83
2023/07/19 05:42:00;;;;;;;;;;;41.90;43.60;;;;;;5113333;28;19904;-83
2023/07/19 05:44:26;;;;;;;;;;;42.70;42.00;;;;;;5113127;28;20320;-82
2023/07/19 05:46:55;;;;;;;;;;;42.80;42.20;;;;;;5113970;28;20364;-83
2023/07/19 05:49:21;;;;;;;;;;;43.90;41.80;;;;;;5113537;28;20259;-82
2023/07/19 05:51:47;;;;;;;;;;;43.60;41.10;;;;;;5113559;28;19950;-82
2023/07/19 05:54:13;;;;;;;;;;;44.00;41.20;;;;;;5095173;28;19903;-82
2023/07/19 05:56:39;;;;;;;;;;;44.00;41.00;;;;;;5113185;28;19907;-83
2023/07/19 05:59:05;;;;;;;;;;;44.30;40.80;;;;;;5113614;28;19956;-82
2023/07/19 06:01:31;;;;;;;;;;;45.20;40.20;;;;;;5113404;28;20271;-82
2023/07/19 06:03:57;;;;;;;;;;;45.10;40.50;;;;;;5113112;28;19915;-83
2023/07/19 06:06:25;;;;;;;;;;;45.70;43.30;;;;;;5094959;28;20307;-83
2023/07/19 06:08:51;;;;;;;;;;;43.40;44.30;;;;;;5094733;28;19950;-83
2023/07/19 06:11:16;;;;;;;;;;;40.50;47.40;;;;;;5094714;28;19976;-82
2023/07/19 06:13:42;;;;;;;;;;;40.90;47.60;;;;;;5112800;28;19904;-83
2023/07/19 06:16:11;;;;;;;;;;;41.50;46.10;;;;;;5095233;28;20343;-83
2023/07/19 06:18:37;;;;;;;;;;;42.60;45.50;;;;;;5113655;28;20256;-83
2023/07/19 06:21:03;;;;;;;;;;;43.30;45.00;;;;;;5113067;28;19968;-83
2023/07/19 06:23:29;;;;;;;;;;;45.20;44.80;;;;;;5113170;28;19904;-83
2023/07/19 06:26:04;;;;;;;;;;;45.80;44.30;;;;;;5112966;28;19910;-83
2023/07/19 06:28:30;;;;;;;;;;;46.80;41.70;;;;;;5115866;28;19908;-83
2023/07/19 06:30:58;;;;;;;;;;;46.70;43.50;;;;;;5098188;28;19908;-83
2023/07/19 06:33:24;;;;;;;;;;;46.70;43.70;;;;;;5116819;28;20363;-83
2023/07/19 06:35:51;;;;;;;;;;;46.30;43.30;;;;;;5116680;28;19903;-82
2023/07/19 06:38:16;;;;;;;;;;;45.20;43.20;;;;;;5116941;28;19904;-83
2023/07/19 06:40:42;;;;;;;;;;;44.70;44.10;;;;;;5098490;28;19912;-84
2023/07/19 06:43:09;;;;;;;;;;;45.50;44.60;;;;;;5098296;28;19942;-82
2023/07/19 06:45:35;;;;;;;;;;;45.00;45.20;;;;;;5116292;28;19992;-82
2023/07/19 06:48:01;;;;;;;;;;;45.30;44.30;;;;;;5116629;28;19904;-82
2023/07/19 06:50:27;;;;;;;;;;;43.30;45.10;;;;;;5116565;28;19908;-82
2023/07/19 06:52:52;;;;;;;;;;;43.80;45.20;;;;;;5116191;28;19904;-82
2023/07/19 06:55:18;;;;;;;;;;;45.00;45.00;;;;;;5116074;28;19968;-83
2023/07/19 06:57:44;;;;;;;;;;;46.50;44.40;;;;;;5116066;28;19927;-83
2023/07/19 07:00:10;;;;;;;;;;;46.40;43.90;;;;;;5116000;28;19918;-82
2023/07/19 07:02:37;;;;;;;;;;;46.60;44.30;;;;;;5115862;28;19911;-82
2023/07/19 07:05:03;;;;;;;;;;;47.60;44.20;;;;;;5097757;28;19912;-83
2023/07/19 07:07:29;;;;;;;;;;;47.80;42.90;;;;;;5115862;28;19927;-83
2023/07/19 07:09:57;;;;;;;;;;;48.50;42.40;;;;;;5116399;28;19907;-82
2023/07/19 07:12:23;;;;;;;;;;;48.50;42.20;;;;;;5115837;28;19911;-83
2023/07/19 07:14:49;;;;;;;;;;;49.10;41.80;;;;;;5115817;28;19945;-84
2023/07/19 07:17:15;;;;;;;;;;;48.50;41.70;;;;;;5116001;28;19948;-82
2023/07/19 07:19:41;;;;;;;;;;;47.60;42.10;;;;;;5115842;28;20327;-84
2023/07/19 07:22:07;;;;;;;;;;;47.40;43.40;;;;;;5115630;28;19990;-83
2023/07/19 07:24:34;;;;;;;;;;;47.30;43.10;;;;;;5131576;27;19915;-83
2023/07/19 07:27:02;;;;;;;;;;;47.40;43.30;;;;;;5116180;28;19915;-82
2023/07/19 07:29:28;;;;;;;;;;;46.30;43.10;;;;;;5115342;28;20360;-82
2023/07/19 07:31:54;;;;;;;;;;;46.00;43.70;;;;;;5115520;28;19903;-82
2023/07/19 07:34:20;;;;;;;;;;;44.50;44.50;;;;;;5115721;28;20268;-82
2023/07/19 07:36:46;;;;;;;;;;;44.50;44.50;;;;;;5115344;28;19949;-83
2023/07/19 07:39:12;;;;;;;;;;;44.10;45.10;;;;;;5114266;28;20268;-82
2023/07/19 07:41:38;;;;;;;;;;;43.60;45.00;;;;;;5115838;28;20328;-82
2023/07/19 07:44:03;;;;;;;;;;;43.60;46.50;;;;;;5115631;28;20318;-82
2023/07/19 07:46:29;;;;;;;;;;;43.60;45.60;;;;;;5116591;28;19907;-82
2023/07/19 07:48:59;;;;;;;;;;;43.60;45.80;;;;;;5096817;28;20003;-83
2023/07/19 07:51:27;;;;;;;;;;;43.00;45.50;;;;;;5115214;28;20002;-82
2023/07/19 07:53:53;;;;;;;;;;;42.20;46.10;;;;;;5096933;28;19908;-82
2023/07/19 07:56:19;;;;;;;;;;;42.30;47.80;;;;;;5116134;28;19924;-83
2023/07/19 07:58:45;;;;;;;;;;;42.60;48.90;;;;;;5115047;28;19904;-83
2023/07/19 08:01:10;;;;;;;;;;;42.90;49.80;;;;;;5096757;28;19912;-83
2023/07/19 08:03:36;;;;;;;;;;;42.50;49.60;;;;;;5114582;28;20380;-83
2023/07/19 08:06:05;;;;;;;;;;;42.60;50.50;;;;;;5114825;28;19920;-83
2023/07/19 08:08:31;;;;;;;;;;;43.00;50.50;;;;;;5114914;28;19910;-83
2023/07/19 08:10:57;;;;;;;;;;;43.20;50.10;;;;;;5115260;28;19904;-83
2023/07/19 08:13:23;;;;;;;;;;;43.50;49.00;;;;;;5096398;28;20356;-83
2023/07/19 08:15:49;;;;;;;;;;;43.30;48.20;;;;;;5114684;28;20060;-83
2023/07/19 08:18:17;;;;;;;;;;;42.80;48.20;;;;;;5096635;28;19920;-83
2023/07/19 08:20:42;;;;;;;;;;;42.50;48.00;;;;;;5114589;28;19912;-83
2023/07/19 08:23:08;;;;;;;;;;;42.20;48.00;;;;;;5096224;28;19903;-83
2023/07/19 08:25:34;;;;;;;;;;;42.10;48.40;;;;;;5115152;28;20255;-83
2023/07/19 08:28:00;;;;;;;;;;;41.70;48.30;;;;;;5096259;28;20323;-82
2023/07/19 08:30:27;;;;;;;;;;;41.70;48.50;;;;;;5114292;28;20366;-82
2023/07/19 08:32:53;;;;;;;;;;;41.80;47.80;;;;;;5096198;28;20332;-83
2023/07/19 08:35:19;;;;;;;;;;;41.10;48.20;;;;;;5114319;28;20442;-82
2023/07/19 08:37:45;;;;;;;;;;;40.90;50.10;;;;;;5114356;28;19904;-82
2023/07/19 08:40:12;;;;;;;;;;;41.10;50.50;;;;;;5114579;28;19912;-81
2023/07/19 08:42:38;;;;;;;;;;;41.20;50.90;;;;;;5114444;28;19903;-83
2023/07/19 08:45:08;;;;;;;;;;;41.00;51.60;;;;;;5114246;28;19949;-82
2023/07/19 08:47:38;;;;;;;;;;;41.30;52.30;;;;;;5114213;28;20409;-82
2023/07/19 08:50:07;;;;;;;;;;;41.30;52.70;;;;;;5114013;28;19907;-82
2023/07/19 08:52:33;;;;;;;;;;;41.30;52.10;;;;;;5114099;28;19904;-82
2023/07/19 08:55:00;;;;;;;;;;;41.20;52.00;;;;;;5113873;28;19911;-83
2023/07/19 08:57:26;;;;;;;;;;;41.20;51.90;;;;;;5113966;28;19904;-82
2023/07/19 08:59:55;;;;;;;;;;;41.10;50.60;;;;;;5113425;28;19954;-82
2023/07/19 09:02:21;;;;;;;;;;;41.30;51.40;;;;;;5114152;28;19904;-82
2023/07/19 09:05:06;;;;;;;;;;;41.40;51.40;;;;;;5114073;28;20364;-81
2023/07/19 09:07:33;;;;;;;;;;;41.30;52.10;;;;;;5095583;28;20235;-82
2023/07/19 09:09:59;;;;;;;;;;;41.50;52.70;;;;;;5096278;28;19939;-82
2023/07/19 09:12:25;;;;;;;;;;;41.40;52.60;;;;;;5116282;28;19907;-82
2023/07/19 09:14:51;;;;;;;;;;;40.90;52.70;;;;;;5115622;28;20399;-82
2023/07/19 09:17:19;;;;;;;;;;;40.90;52.90;;;;;;5095188;28;20053;-82
2023/07/19 09:19:46;;;;;;;;;;;40.70;52.80;;;;;;5113216;28;19973;-82
2023/07/19 09:22:14;;;;;;;;;;;40.30;52.90;;;;;;5113175;28;19947;-82
2023/07/19 09:24:52;;;;;;;;;;;40.20;53.00;;;;;;5113427;28;20410;-83
2023/07/19 09:27:23;;;;;;;;;;;40.10;52.60;;;;;;5113646;28;20336;-82
2023/07/19 09:29:50;;;;;;;;;;;40.30;52.40;;;;;;5094704;28;19907;-82
2023/07/19 09:32:16;;;;;;;;;;;40.20;52.80;;;;;;5113365;28;19987;-82
2023/07/19 09:34:41;;;;;;;;;;;40.00;53.00;;;;;;5113198;28;20354;-82
2023/07/19 09:37:07;;;;;;;;;;;40.30;53.40;;;;;;5113602;28;19903;-83
2023/07/19 09:39:37;;;;;;;;;;;40.50;51.90;;;;;;5112792;28;19919;-82
2023/07/19 09:42:03;;;;;;;;;;;40.20;52.60;;;;;;5113167;28;20280;-82
2023/07/19 09:44:29;;;;;;;;;;;40.20;52.80;;;;;;5113009;28;19926;-82
2023/07/19 09:46:54;;;;;;;;;;;40.00;52.40;;;;;;5113984;28;20301;-83
2023/07/19 09:49:20;;;;;;;;;;;40.00;52.10;;;;;;5113295;28;19904;-83
2023/07/19 09:51:47;;;;;;;;;;;40.10;51.30;;;;;;5113242;28;19937;-83
2023/07/19 09:54:13;;;;;;;;;;;40.10;51.20;;;;;;5113176;28;19904;-82
2023/07/19 09:56:40;;;;;;;;;;;39.90;50.80;;;;;;5094834;28;20396;-82
2023/07/19 09:59:08;;;;;;;;;;;39.80;51.20;;;;;;5112916;28;19965;-83
2023/07/19 10:01:34;;;;;;;;;;;40.00;50.90;;;;;;5113595;28;19912;-83
2023/07/19 10:04:00;;;;;;;;;;;40.10;50.30;;;;;;5098334;28;19923;-82
2023/07/19 10:06:30;;;;;;;;;;;39.90;49.60;;;;;;5117155;28;19904;-82
2023/07/19 10:09:14;;;;;;;;;;;39.80;50.50;;;;;;5117061;28;19926;-83
2023/07/19 10:11:42;;;;;;;;;;;39.90;50.70;;;;;;5117599;28;19908;-83
2023/07/19 10:14:08;;;;;;;;;;;39.90;49.30;;;;;;5098467;28;19907;-83
2023/07/19 10:16:36;;;;;;;;;;;39.50;49.70;;;;;;5117168;28;19903;-83
2023/07/19 10:19:10;;;;;;;;;;;39.70;50.30;;;;;;5098672;28;20310;-83
2023/07/19 10:21:36;;;;;;;;;;;39.80;50.00;;;;;;5117131;28;19919;-83
2023/07/19 10:24:06;;;;;;;;;;;39.80;49.00;;;;;;5116828;28;19940;-83
2023/07/19 10:26:34;;;;;;;;;;;39.70;49.10;;;;;;5116804;28;19904;-82
2023/07/19 10:29:01;;;;;;;;;;;39.80;50.10;;;;;;5117151;28;20010;-81
2023/07/19 10:31:27;;;;;;;;;;;39.80;51.10;;;;;;5116748;28;20393;-82
2023/07/19 10:33:53;;;;;;;;;;;39.40;50.70;;;;;;5117266;28;19953;-82
2023/07/19 10:36:19;;;;;;;;;;;39.10;51.50;;;;;;5116809;28;19939;-82
2023/07/19 10:38:45;;;;;;;;;;;39.00;51.50;;;;;;5116797;28;20013;-82
2023/07/19 10:41:12;;;;;;;;;;;39.00;52.50;;;;;;5098270;28;20378;-82
2023/07/19 10:43:38;;;;;;;;;;;38.80;52.10;;;;;;5116490;28;19994;-83
2023/07/19 10:46:07;;;;;;;;;;;38.70;52.80;;;;;;5116669;28;19954;-82
2023/07/19 10:48:34;;;;;;;;;;;38.80;53.00;;;;;;5116807;28;20303;-82
2023/07/19 10:51:00;;;;;;;;;;;39.20;52.10;;;;;;5116690;28;19911;-84
2023/07/19 10:53:27;;;;;;;;;;;39.30;50.50;;;;;;5116509;28;19903;-84
2023/07/19 10:55:53;;;;;;;;;;;39.00;51.10;;;;;;5116964;28;19935;-82
2023/07/19 10:58:19;;;;;;;;;;;39.10;50.30;;;;;;5116420;28;19973;-81
2023/07/19 11:00:45;;;;;;;;;;;38.90;51.60;;;;;;5116120;28;20279;-82
2023/07/19 11:03:14;;;;;;;;;;;39.20;51.60;;;;;;5116047;28;20049;-82
2023/07/19 11:05:43;;;;;;;;;;;39.20;51.40;;;;;;5116114;28;19911;-81
2023/07/19 11:08:09;;;;;;;;;;;39.10;51.80;;;;;;5116806;28;19910;-82
2023/07/19 11:10:35;;;;;;;;;;;39.30;51.60;;;;;;5116163;28;19904;-82
2023/07/19 11:13:01;;;;;;;;;;;39.50;51.50;;;;;;5097707;28;20006;-82
2023/07/19 11:15:27;;;;;;;;;;;39.30;50.90;;;;;;5116025;28;19994;-82
2023/07/19 11:17:55;;;;;;;;;;;39.40;50.90;;;;;;5116332;28;20005;-83
2023/07/19 11:20:27;;;;;;;;;;;38.90;50.60;;;;;;5115718;28;19911;-82
2023/07/19 11:23:02;;;;;;;;;;;38.90;50.30;;;;;;5115743;28;19903;-83
2023/07/19 11:25:27;;;;;;;;;;;39.10;51.00;;;;;;5116213;28;19903;-82
2023/07/19 11:27:53;;;;;;;;;;;39.30;51.60;;;;;;5115556;28;19904;-82
2023/07/19 11:30:19;;;;;;;;;;;39.20;50.60;;;;;;5096963;28;19993;-83
2023/07/19 11:32:45;;;;;;;;;;;39.30;51.20;;;;;;5116094;28;19904;-82
2023/07/19 11:35:11;;;;;;;;;;;39.30;49.50;;;;;;5115863;28;19908;-82
2023/07/19 11:37:37;;;;;;;;;;;39.30;49.90;;;;;;5116033;28;19911;-82
2023/07/19 11:40:06;;;;;;;;;;;39.30;50.00;;;;;;5115596;28;19914;-82
2023/07/19 11:42:49;;;;;;;;;;;39.30;49.70;;;;;;5097090;28;19907;-82
2023/07/19 11:45:27;;;;;;;;;;;39.10;51.00;;;;;;5115412;28;20426;-83
2023/07/19 11:48:00;;;;;;;;;;;39.20;50.30;;;;;;5115588;28;19904;-82
2023/07/19 11:50:26;;;;;;;;;;;39.40;50.40;;;;;;5115194;28;19961;-82
2023/07/19 11:52:56;;;;;;;;;;;39.50;49.70;;;;;;5096705;28;20331;-82
2023/07/19 11:55:23;;;;;;;;;;;39.60;50.90;;;;;;5115151;28;19903;-82
2023/07/19 11:57:51;;;;;;;;;;;39.60;49.70;;;;;;5114936;28;19904;-82
2023/07/19 12:00:17;;;;;;;;;;;39.50;49.90;;;;;;5096488;28;20338;-82
2023/07/19 12:02:44;;;;;;;;;;;39.70;50.40;;;;;;5115273;28;19988;-81
2023/07/19 12:05:15;;;;;;;;;;;39.40;51.60;;;;;;5096495;28;19915;-82
2023/07/19 12:07:41;;;;;;;;;;;39.30;50.10;;;;;;5115411;28;19915;-81
2023/07/19 12:10:07;;;;;;;;;;;39.30;50.90;;;;;;5114876;28;20283;-82
2023/07/19 12:12:33;;;;;;;;;;;39.60;51.50;;;;;;5114812;28;20366;-82
2023/07/19 12:15:09;;;;;;;;;;;39.70;51.80;;;;;;5096343;28;19911;-82
2023/07/19 12:17:36;;;;;;;;;;;39.70;51.70;;;;;;5115052;28;20347;-82
2023/07/19 12:20:03;;;;;;;;;;;39.90;50.50;;;;;;5114560;28;19908;-83
2023/07/19 12:22:29;;;;;;;;;;;39.80;52.00;;;;;;5096366;28;19998;-83
2023/07/19 12:24:55;;;;;;;;;;;39.80;50.40;;;;;;5114032;28;20008;-82
2023/07/19 12:27:21;;;;;;;;;;;39.90;51.30;;;;;;5115086;28;20127;-81
2023/07/19 12:29:46;;;;;;;;;;;39.90;51.70;;;;;;5114507;28;19903;-82
2023/07/19 12:32:13;;;;;;;;;;;39.70;51.20;;;;;;5114478;28;19904;-82
2023/07/19 12:34:38;;;;;;;;;;;39.90;50.20;;;;;;5115133;28;20208;-83
2023/07/19 12:37:04;;;;;;;;;;;40.10;51.20;;;;;;5114626;28;20356;-82
2023/07/19 12:39:32;;;;;;;;;;;40.00;51.30;;;;;;5114756;28;20021;-82
2023/07/19 12:41:58;;;;;;;;;;;39.80;50.10;;;;;;5114173;28;19912;-82
2023/07/19 12:44:24;;;;;;;;;;;39.90;49.00;;;;;;5114232;28;19986;-82
2023/07/19 12:46:50;;;;;;;;;;;39.80;47.70;;;;;;5114388;28;19907;-82
2023/07/19 12:49:17;;;;;;;;;;;39.80;47.30;;;;;;5114226;28;19903;-82
2023/07/19 12:51:45;;;;;;;;;;;40.00;47.40;;;;;;5114029;28;19957;-83
2023/07/19 12:54:11;;;;;;;;;;;40.00;46.90;;;;;;5114666;28;19965;-82
2023/07/19 12:56:37;;;;;;;;;;;40.00;47.00;;;;;;5095642;28;19993;-83
2023/07/19 12:59:02;;;;;;;;;;;39.90;45.50;;;;;;5114734;28;19992;-82
2023/07/19 13:01:28;;;;;;;;;;;39.80;47.20;;;;;;5113833;28;20263;-83
2023/07/19 13:03:54;;;;;;;;;;;39.90;47.80;;;;;;5113684;28;19915;-82
2023/07/19 13:06:21;;;;;;;;;;;39.80;47.50;;;;;;5114140;28;20017;-83
2023/07/19 13:08:47;;;;;;;;;;;40.10;46.90;;;;;;5114092;28;20371;-83
2023/07/19 13:11:13;;;;;;;;;;;40.30;46.80;;;;;;5114100;28;19903;-83
2023/07/19 13:13:39;;;;;;;;;;;40.10;46.30;;;;;;5095707;28;19910;-83
2023/07/19 13:16:05;;;;;;;;;;;40.00;47.60;;;;;;5113606;28;19914;-83
2023/07/19 13:18:30;;;;;;;;;;;39.90;47.20;;;;;;5113640;28;20002;-83
2023/07/19 13:20:57;;;;;;;;;;;39.70;48.30;;;;;;5095199;28;19962;-83
2023/07/19 13:23:23;;;;;;;;;;;39.90;47.40;;;;;;5095508;28;19982;-83
2023/07/19 13:25:49;;;;;;;;;;;39.90;47.80;;;;;;5095445;28;20040;-84
2023/07/19 13:28:15;;;;;;;;;;;40.00;47.40;;;;;;5113486;28;19904;-82
2023/07/19 13:30:41;;;;;;;;;;;39.80;48.20;;;;;;5113320;28;19919;-82
2023/07/19 13:33:07;;;;;;;;;;;39.50;51.20;;;;;;5113953;28;19904;-83
2023/07/19 13:35:34;;;;;;;;;;;39.60;51.80;;;;;;5113317;28;19911;-83
2023/07/19 13:38:00;;;;;;;;;;;39.60;52.30;;;;;;5112816;28;19966;-83
2023/07/19 13:40:25;;;;;;;;;;;39.70;51.90;;;;;;5113708;28;19915;-83
2023/07/19 13:42:52;;;;;;;;;;;39.60;52.70;;;;;;5115750;28;19903;-83
2023/07/19 13:45:18;;;;;;;;;;;39.80;53.80;;;;;;5115829;28;20310;-82
2023/07/19 13:47:44;;;;;;;;;;;39.80;54.90;;;;;;5115034;28;19903;-82
2023/07/19 13:50:10;;;;;;;;;;;39.90;55.20;;;;;;5113481;28;19904;-82
2023/07/19 13:52:36;;;;;;;;;;;39.80;54.40;;;;;;5113355;28;19943;-83
2023/07/19 13:55:02;;;;;;;;;;;39.70;56.40;;;;;;5113149;28;19946;-83
2023/07/19 13:57:28;;;;;;;;;;;39.70;56.00;;;;;;5113805;28;19904;-83
2023/07/19 13:59:55;;;;;;;;;;;39.40;56.10;;;;;;5113126;28;19912;-83
2023/07/19 14:02:21;;;;;;;;;;;39.50;56.70;;;;;;5113502;28;19995;-83
2023/07/19 14:04:48;;;;;;;;;;;39.30;55.30;;;;;;5113299;28;19927;-82
2023/07/19 14:07:14;;;;;;;;;;;39.50;54.20;;;;;;5113420;28;19904;-82
2023/07/19 14:09:40;;;;;;;;;;;39.50;55.70;;;;;;5113366;28;19938;-82
2023/07/19 14:12:07;;;;;;;;;;;39.60;56.10;;;;;;5113240;28;20362;-83